Latest Coastal Weather Observations for Hervey Bay

IDQ60701

Issued at 10:42 am EST Friday 22 September 2017 (issued every 10 minutes, with the page automatically refreshed every 10 minutes)

About coastal observations | Map of coastal stations | Coastal observations for QLD | Marine services | Other Formats
Station Details ID: 040405 Name: HERVEY BAY AIRPORT Lat: -25.32 Lon: 152.88 Height: 12.98 m
Data from the previous 72 hours. | See also: Recent months at Hervey Bay
Date/Time
EST
Temp
°C
Wind Pressure Rain since
9am
mm
Weather Cloud Vis
km
Sea
Height
m
Swell
Dir  Spd
kts
Gust
kts
hPa Trend Height
m
Period
s
Dir
22/10:30am 25.0 N 10 15 1019.1 - 0.0 - Partly cloudy 10 - - - -
22/10:00am 25.7 NNW 11 16 1019.5 - 0.0 - Partly cloudy 10 - - - -
22/09:30am 25.2 NNW 9 14 1019.5 - 0.0 - Partly cloudy 10 - - - -
22/09:00am 24.5 NNW 8 15 1019.7 - 0.0 - Partly cloudy 10 - - - -
22/08:30am 24.4 N 8 11 1019.5 - 0.0 - Partly cloudy 10 - - - -
22/08:00am 23.7 NNE 7 11 1019.3 - 0.0 - Partly cloudy 10 - - - -
22/07:30am 23.2 NE 9 11 1018.8 - 0.0 - - 10 - - - -
22/07:00am 22.1 NE 7 9 1018.4 - 0.0 - - 10 - - - -
22/06:30am 21.1 NE 5 7 1018.4 - 0.0 - Partly cloudy 10 - - - -
22/06:00am 20.6 NE 5 7 1018.3 - 0.0 - Cloudy 10 - - - -
22/05:30am 20.2 NE 4 5 1018.0 - 0.0 - Partly cloudy 10 - - - -
22/05:00am 19.8 ENE 4 5 1017.7 - 0.0 - Partly cloudy 10 - - - -
22/04:30am 20.6 NE 4 7 1017.4 - 0.0 - Partly cloudy 10 - - - -
22/04:00am 21.1 NE 7 11 1016.9 - 0.0 - Partly cloudy 10 - - - -
22/03:30am 21.1 NE 8 11 1016.8 - 0.0 - Partly cloudy 10 - - - -
22/03:00am 20.8 NNE 6 8 1017.0 - 0.0 - Partly cloudy 10 - - - -
22/02:30am 21.0 NNE 8 11 1017.1 - 0.0 - Partly cloudy 10 - - - -
22/02:00am 20.4 NE 4 5 1017.4 - 0.0 - Partly cloudy 10 - - - -
22/01:30am 20.0 NNE 4 6 1017.3 - 0.0 - Partly cloudy 10 - - - -
22/01:00am 20.5 NE 7 9 1017.2 - 0.0 - Partly cloudy 10 - - - -
22/12:30am 20.6 NE 6 8 1017.5 - 0.0 - Partly cloudy 10 - - - -
22/12:00am 20.5 NE 5 7 1017.8 - 0.0 - Mostly clear 10 - - - -
 
Date/Time
EST
Temp
°C
Wind Pressure Rain since
9am
mm
Weather Cloud Vis
km
Sea
Height
m
Swell
Dir  Spd
kts
Gust
kts
hPa Trend Height
m
Period
s
Dir
21/11:30pm 20.4 NE 5 7 1018.0 - 0.0 - - 10 - - - -
21/11:00pm 20.7 ENE 5 6 1018.0 - 0.0 - Partly cloudy 10 - - - -
21/10:30pm 21.1 NE 5 7 1018.0 - 0.0 - Partly cloudy 10 - - - -
21/10:00pm 21.4 NE 6 7 1018.1 - 0.0 - Partly cloudy 10 - - - -
21/09:30pm 21.9 NNE 7 11 1018.1 - 0.0 - Partly cloudy 10 - - - -
21/09:00pm 21.7 NNE 7 10 1018.1 - 0.0 - Mostly cloudy 10 - - - -
21/08:30pm 21.7 NNE 6 9 1017.9 - 0.0 - Partly cloudy 10 - - - -
21/08:00pm 21.9 NNE 8 11 1017.5 - 0.0 - - 10 - - - -
21/07:30pm 22.0 N 8 11 1017.3 - 0.0 - - 10 - - - -
21/07:00pm 22.0 N 10 14 1016.9 - 0.0 - - 10 - - - -
21/06:30pm 22.1 N 9 13 1016.7 - 0.0 - - 10 - - - -
21/06:00pm 22.3 NNE 9 14 1016.3 - 0.0 - - 10 - - - -
21/05:30pm 22.6 N 8 12 1016.1 - 0.0 - - 10 - - - -
21/05:00pm 23.2 N 9 13 1015.8 - 0.0 - - 10 - - - -
21/04:30pm 23.5 NNE 12 14 1015.5 - 0.0 - - 10 - - - -
21/04:00pm 24.2 NNE 11 17 1015.4 - 0.0 - - 10 - - - -
21/03:30pm 24.5 NNE 11 16 1015.3 - 0.0 - - 10 - - - -
21/03:00pm 25.0 N 12 16 1015.3 - 0.0 - - 10 - - - -
21/02:30pm 25.5 N 11 15 1015.5 - 0.0 - - 10 - - - -
21/02:00pm 25.1 N 13 17 1015.7 - 0.0 - - 10 - - - -
21/01:30pm 25.5 N 12 16 1016.0 - 0.0 - - 10 - - - -
21/01:00pm 25.6 N 12 16 1016.3 - 0.0 - - 10 - - - -
21/12:30pm 25.9 N 10 15 1016.7 - 0.0 - - 10 - - - -
21/12:00pm 25.4 NNW 9 12 1017.2 - 0.0 - - 10 - - - -
21/11:30am 25.9 N 9 12 1017.5 - 0.0 - - 10 - - - -
21/11:00am 25.4 N 8 11 1018.0 - 0.0 - - 10 - - - -
21/10:30am 25.7 NNE 7 11 1018.4 - 0.0 - - 10 - - - -
21/10:00am 25.6 N 7 10 1018.7 - 0.0 - Partly cloudy 10 - - - -
21/09:30am 24.4 NNE 7 11 1019.0 - 0.0 - Partly cloudy 10 - - - -
21/09:00am 24.4 NE 5 8 1019.0 - 0.0 - - 10 - - - -
21/08:30am 23.3 E 5 7 1019.1 - 0.0 - - 10 - - - -
21/08:00am 22.6 SE 3 5 1019.2 - 0.0 - - 10 - - - -
21/07:30am 20.4 SW 5 6 1019.3 - 0.0 - - 10 - - - -
21/07:00am 19.4 SSW 6 7 1019.0 - 0.0 - Partly cloudy 10 - - - -
21/06:30am 17.8 SSW 6 7 1018.5 - 0.0 - Partly cloudy 10 - - - -
21/06:00am 17.5 SSW 5 6 1018.2 - 0.0 - Mostly cloudy 10 - - - -
21/05:30am 17.5 SW 5 7 1018.1 - 0.0 - Partly cloudy 10 - - - -
21/05:00am 17.2 W 3 4 1017.5 - 0.0 - Partly cloudy 9 - - - -
21/04:30am 17.4 SSW 4 6 1016.9 - 0.0 - Partly cloudy 9 - - - -
21/04:00am 17.4 SSW 1 5 1016.6 - 0.0 - Partly cloudy 9 - - - -
21/03:30am 17.3 SSW 5 6 1016.4 - 0.0 - Partly cloudy 10 - - - -
21/03:00am 16.9 CALM 0 0 1016.5 - 0.0 - Mostly cloudy 10 - - - -
21/02:30am 16.0 SW 2 4 1016.6 - 0.0 - Cloudy 10 - - - -
21/02:00am 16.1 CALM 0 0 1016.7 - 0.0 - Partly cloudy 10 - - - -
21/01:30am 16.9 CALM 0 2 1017.3 - 0.0 - Partly cloudy 10 - - - -
21/01:00am 16.9 WSW 3 3 1017.6 - 0.0 - Partly cloudy 9 - - - -
21/12:30am 17.4 SW 4 5 1017.5 - 0.0 - Partly cloudy 9 - - - -
21/12:00am 17.6 SW 3 4 1017.6 - 0.0 - Cloudy 10 - - - -
 
Date/Time
EST
Temp
°C
Wind Pressure Rain since
9am
mm
Weather Cloud Vis
km
Sea
Height
m
Swell
Dir  Spd
kts
Gust
kts
hPa Trend Height
m
Period
s
Dir
20/11:30pm 18.1 SW 3 5 1017.7 - 0.0 - - 10 - - - -
20/11:00pm 18.3 SSW 5 7 1017.9 - 0.0 - - 10 - - - -
20/10:30pm 18.5 SSW 6 7 1017.8 - 0.0 - Partly cloudy 10 - - - -
20/10:00pm 18.6 SSW 5 7 1017.7 - 0.0 - Partly cloudy 10 - - - -
20/09:30pm 18.4 SSW 5 5 1017.5 - 0.0 - Partly cloudy 10 - - - -
20/09:00pm 18.8 SW 3 4 1017.4 - 0.0 - Partly cloudy 10 - - - -
20/08:30pm 19.9 SSW 4 5 1017.5 - 0.0 - Partly cloudy 10 - - - -
20/08:00pm 20.6 SSW 4 6 1017.5 - 0.0 - Partly cloudy 10 - - - -
20/07:30pm 20.8 SSW 5 6 1017.1 - 0.0 - Partly cloudy 10 - - - -
20/07:00pm 20.8 SSE 4 5 1016.5 - 0.0 - Partly cloudy 10 - - - -
20/06:30pm 21.2 ESE 4 6 1016.3 - 0.0 - Partly cloudy 10 - - - -
20/06:00pm 21.8 ESE 6 8 1015.8 - 0.0 - Mostly cloudy 10 - - - -
20/05:30pm 22.1 E 10 13 1015.4 - 0.0 - Partly cloudy 10 - - - -
20/05:00pm 22.5 E 10 13 1014.9 - 0.0 - - 10 - - - -
20/04:30pm 23.4 E 11 14 1014.5 - 0.0 - - 10 - - - -
20/04:00pm 23.9 ESE 13 17 1014.4 - 0.0 - - 10 - - - -
20/03:30pm 24.6 SE 11 16 1014.3 - 0.0 - - 10 - - - -
20/03:00pm 25.1 ESE 11 17 1014.5 - 0.0 - - 10 - - - -
20/02:30pm 25.5 ESE 13 18 1014.7 - 0.0 - - 10 - - - -
20/02:00pm 25.9 ESE 13 17 1015.1 - 0.0 - - 10 - - - -
20/01:30pm 25.6 ESE 14 20 1015.4 - 0.0 - - 10 - - - -
20/01:00pm 26.3 ESE 13 17 1015.9 - 0.0 - - 10 - - - -
20/12:30pm 26.5 SSE 11 15 1016.4 - 0.0 - - 10 - - - -
20/12:00pm 26.8 SE 9 13 1016.6 - 0.0 - - 10 - - - -
20/11:30am 26.9 S 9 13 1017.0 - 0.0 - - 10 - - - -
20/11:00am 25.6 E 8 11 1017.4 - 0.0 - - 10 - - - -
20/10:30am 25.9 E 10 14 1017.7 - 0.0 - - 10 - - - -
20/10:00am 26.0 SW 9 15 1018.1 - 0.0 - - 10 - - - -
20/09:30am 24.5 WNW 5 8 1018.4 - 0.0 - - 10 - - - -
20/09:00am 24.1 WNW 7 10 1019.0 - 0.0 - - 10 - - - -
20/08:30am 22.5 NW 9 13 1019.1 - 0.0 - - 10 - - - -
20/08:00am 22.7 NW 10 13 1018.8 - 0.0 - - 10 - - - -
20/07:30am 21.5 NW 8 11 1018.7 - 0.0 - - 10 - - - -
20/07:00am 19.3 NW 5 7 1018.4 - 0.0 - - 10 - - - -
20/06:30am 16.9 NNW 4 6 1018.0 - 0.0 - - 10 - - - -
20/06:00am 15.7 WNW 3 5 1017.4 - 0.0 - - 10 - - - -
20/05:30am 16.4 WNW 1 5 1017.1 - 0.0 - - 10 - - - -
20/05:00am 16.0 NW 3 4 1016.9 - 0.0 - - 10 - - - -
20/04:30am 16.5 CALM 0 0 1016.9 - 0.0 - - 10 - - - -
20/04:00am 17.4 WNW 2 5 1016.9 - 0.0 - - 10 - - - -
20/03:30am 17.9 W 4 8 1016.7 - 0.0 - - 10 - - - -
20/03:00am 18.2 W 4 6 1016.7 - 0.0 - Mostly clear 10 - - - -
20/02:30am 19.2 WNW 4 7 1016.4 - 0.0 - - 10 - - - -
20/02:00am 19.6 WNW 5 8 1016.7 - 0.0 - - 10 - - - -
20/01:30am 20.0 NW 5 9 1016.8 - 0.0 - - 10 - - - -
20/01:00am 20.4 NW 7 10 1017.2 - 0.0 - - 10 - - - -
20/12:30am 20.9 NNW 8 12 1017.4 - 0.0 - - 10 - - - -
20/12:00am 20.7 NNW 7 9 1017.4 - 0.0 - Mostly clear 10 - - - -
 
Date/Time
EST
Temp
°C
Wind Pressure Rain since
9am
mm
Weather Cloud Vis
km
Sea
Height
m
Swell
Dir  Spd
kts
Gust
kts
hPa Trend Height
m
Period
s
Dir
19/11:30pm 20.7 N 6 10 1017.2 - 0.0 - - 10 - - - -
19/11:00pm 21.1 NNW 6 9 1017.6 - 0.0 - - 10 - - - -
19/10:30pm 21.2 N 7 11 1017.9 - 0.0 - - 10 - - - -
19/10:00pm 21.3 N 7 10 1018.3 - 0.0 - - 10 - - - -
19/09:30pm 21.4 NNW 8 14 1018.7 - 0.0 - - 10 - - - -
19/09:00pm 21.5 N 8 13 1018.7 - 0.0 - Cloudy 10 - - - -
19/08:30pm 21.6 NNW 9 13 1019.2 - 0.0 - - 10 - - - -
19/08:00pm 21.5 N 9 14 1018.9 - 0.0 - - 10 - - - -
19/07:30pm 21.6 N 9 13 1019.1 - 0.0 - - 10 - - - -
19/07:00pm 21.8 NNW 10 15 1019.3 - 0.0 - - 10 - - - -
19/06:30pm 21.4 N 9 13 1018.6 - 0.0 - - 10 - - - -
19/06:00pm 21.7 N 9 13 1017.8 - 0.0 - Mostly cloudy 10 - - - -
19/05:30pm 21.9 N 9 14 1018.0 - 0.0 - - 10 - - - -
19/05:00pm 22.0 N 9 13 1017.8 - 0.0 - - 10 - - - -
19/04:30pm 22.1 N 10 15 1017.6 - 0.0 - - 10 - - - -
19/04:00pm 22.4 N 12 19 1018.4 - 0.0 - - 10 - - - -
19/03:30pm 22.6 N 13 19 1018.6 - 0.0 - - 10 - - - -
19/03:00pm 23.4 N 13 18 1017.7 - 0.0 - - 10 - - - -
19/02:30pm 24.3 N 12 16 1017.8 - 0.0 - - 10 - - - -
19/02:00pm 24.4 N 12 16 1018.4 - 0.0 - - 10 - - - -
19/01:30pm 24.5 N 11 16 1018.9 - 0.0 - - 10 - - - -
19/01:00pm 24.5 NNW 11 15 1019.5 - 0.0 - - 10 - - - -
19/12:30pm 24.5 N 10 15 1020.1 - 0.0 - - 10 - - - -
19/12:00pm 25.0 N 10 14 1020.4 - 0.0 - - 10 - - - -
19/11:30am 24.0 NNW 9 13 1021.1 - 0.0 - - 10 - - - -
19/11:00am 24.4 N 8 11 1021.4 - 0.0 - - 10 - - - -

Other Formats:

Comma delimited format used in spreadsheet applications
http://www.bom.gov.au/fwo/IDQ60701/IDQ60701.95565.axf

JavaScript Object Notation format (JSON) in row-major order
http://www.bom.gov.au/fwo/IDQ60701/IDQ60701.95565.json